Accueil
METAR-TAF:

METAR-TAF

Aéroports :

Aéroport international Don Muang

Bangkok, Thaïlande

latitude: 13-54-45N, longitude: 100-36-24E, altitude: 4 m

Observation

Le bulletin a été fait il y a 23 minutes, à 01:30 UTC
Vent 9 kt de est
Température 26°C
Humidité 51%
Pression 1019 hPa
Visibilité 10 km ou plus
Quelques nuages à une hauteur de 2000 ft

METAR: VTBD 220130Z 09009KT 9999 FEW020 26/15 Q1019 NOSIG

Heure: 08:53 (01:53 UTC)

Prévision

Le bulletin a été fait il y a 2 heures et 53 minutes, à 23:00 UTC
Prévision valable du 22 à 00 UTC au 23 à 06 UTC
Vent 10 kt de est
Visibilité 10 km ou plus
Quelques nuages à une hauteur de 3000 ft
Evoluant progressivement
du 22 à 16 UTC au 22 à 18 UTC
Vent 8 kt de nord/nord-est
Evoluant progressivement
du 23 à 00 UTC au 23 à 02 UTC
Vent 8 kt de est

TAF: VTBD 212300Z 2200/2306 09010KT 9999 FEW030 BECMG 2216/2218 03008KT BECMG 2300/2302 09008KT

Observations et prévisions météorologiques de plus de 4000 aéroports (messages METAR et TAF).

Les stations disponibles sont représentées par des disques jaunes et rouges sur la carte.

Passer la souris dessus pour voir le nom de la station.

Cliquer dessus pour voir les observations et prévisions météorologiques.

Pour changer de carte: cliquez sur les boutons verts avec une croix noire pour zoomer, sur le bouton vert avec un tiret pour effectuer un zoom arrière, ou sur les flèches vertes pour les cartes adjacentes.


METAR-TAF: